sensor_id;sensor_type;location;lat;lon;timestamp;pressure;altitude;pressure_sealevel;temperature;humidity
61357;BME280;47227;46.752;23.576;2023-01-26T00:00:07;97010.77;;;-1.15;62.18
61357;BME280;47227;46.752;23.576;2023-01-26T00:02:55;97007.92;;;-1.14;62.32
61357;BME280;47227;46.752;23.576;2023-01-26T00:05:23;97004.45;;;-1.17;62.33
61357;BME280;47227;46.752;23.576;2023-01-26T00:07:52;97001.92;;;-1.22;62.15
61357;BME280;47227;46.752;23.576;2023-01-26T00:10:19;97000.95;;;-1.23;62.45
61357;BME280;47227;46.752;23.576;2023-01-26T00:12:47;97001.94;;;-1.26;63.04
61357;BME280;47227;46.752;23.576;2023-01-26T00:15:15;96994.95;;;-1.26;63.13
61357;BME280;47227;46.752;23.576;2023-01-26T00:17:44;96991.81;;;-1.24;62.99
61357;BME280;47227;46.752;23.576;2023-01-26T00:23:02;96990.41;;;-1.19;62.90
61357;BME280;47227;46.752;23.576;2023-01-26T00:25:30;96994.57;;;-1.16;62.81
61357;BME280;47227;46.752;23.576;2023-01-26T00:28:01;96993.35;;;-1.16;62.57
61357;BME280;47227;46.752;23.576;2023-01-26T00:30:29;96989.46;;;-1.14;62.68
61357;BME280;47227;46.752;23.576;2023-01-26T00:32:58;96985.77;;;-1.14;62.74
61357;BME280;47227;46.752;23.576;2023-01-26T00:35:29;96982.73;;;-1.11;62.56
61357;BME280;47227;46.752;23.576;2023-01-26T00:37:59;96980.12;;;-1.15;62.44
61357;BME280;47227;46.752;23.576;2023-01-26T00:40:29;96981.06;;;-1.13;62.51
61357;BME280;47227;46.752;23.576;2023-01-26T00:43:05;96984.04;;;-1.12;62.42
61357;BME280;47227;46.752;23.576;2023-01-26T00:45:37;96976.89;;;-1.09;62.34
61357;BME280;47227;46.752;23.576;2023-01-26T00:48:08;96976.29;;;-1.08;62.01
61357;BME280;47227;46.752;23.576;2023-01-26T00:50:38;96973.71;;;-1.08;61.95
61357;BME280;47227;46.752;23.576;2023-01-26T00:53:06;96972.30;;;-1.08;61.75
61357;BME280;47227;46.752;23.576;2023-01-26T00:56:01;96970.20;;;-1.06;61.79
61357;BME280;47227;46.752;23.576;2023-01-26T00:58:56;96969.02;;;-1.04;61.86
61357;BME280;47227;46.752;23.576;2023-01-26T01:01:27;96965.84;;;-1.03;61.81
61357;BME280;47227;46.752;23.576;2023-01-26T01:04:06;96962.91;;;-1.05;61.85
61357;BME280;47227;46.752;23.576;2023-01-26T01:06:38;96961.98;;;-1.06;61.68
61357;BME280;47227;46.752;23.576;2023-01-26T01:09:26;96957.45;;;-1.05;61.78
61357;BME280;47227;46.752;23.576;2023-01-26T01:11:55;96959.19;;;-1.05;61.58
61357;BME280;47227;46.752;23.576;2023-01-26T01:14:25;96962.13;;;-1.06;61.53
61357;BME280;47227;46.752;23.576;2023-01-26T01:16:56;96954.52;;;-1.07;61.33
61357;BME280;47227;46.752;23.576;2023-01-26T01:19:27;96955.79;;;-1.09;61.41
61357;BME280;47227;46.752;23.576;2023-01-26T01:21:57;96953.29;;;-1.10;61.51
61357;BME280;47227;46.752;23.576;2023-01-26T01:24:33;96949.45;;;-1.13;61.41
61357;BME280;47227;46.752;23.576;2023-01-26T01:27:04;96947.79;;;-1.16;61.26
61357;BME280;47227;46.752;23.576;2023-01-26T01:29:39;96946.85;;;-1.19;61.32
61357;BME280;47227;46.752;23.576;2023-01-26T01:32:15;96942.17;;;-1.22;61.51
61357;BME280;47227;46.752;23.576;2023-01-26T01:34:46;96943.65;;;-1.23;61.63
61357;BME280;47227;46.752;23.576;2023-01-26T01:37:19;96936.61;;;-1.28;62.16
61357;BME280;47227;46.752;23.576;2023-01-26T01:39:51;96929.52;;;-1.28;61.98
61357;BME280;47227;46.752;23.576;2023-01-26T01:42:27;96927.67;;;-1.28;62.21
61357;BME280;47227;46.752;23.576;2023-01-26T01:45:35;96926.58;;;-1.29;62.21
61357;BME280;47227;46.752;23.576;2023-01-26T01:48:12;96923.42;;;-1.30;62.23
61357;BME280;47227;46.752;23.576;2023-01-26T01:50:42;96920.91;;;-1.31;62.35
61357;BME280;47227;46.752;23.576;2023-01-26T01:53:21;96914.70;;;-1.30;62.57
61357;BME280;47227;46.752;23.576;2023-01-26T01:56:05;96913.41;;;-1.31;62.51
61357;BME280;47227;46.752;23.576;2023-01-26T01:58:36;96907.66;;;-1.32;62.60
61357;BME280;47227;46.752;23.576;2023-01-26T02:01:08;96904.08;;;-1.34;62.75
61357;BME280;47227;46.752;23.576;2023-01-26T02:03:44;96904.76;;;-1.36;63.05
61357;BME280;47227;46.752;23.576;2023-01-26T02:06:28;96903.08;;;-1.37;62.79
61357;BME280;47227;46.752;23.576;2023-01-26T02:09:02;96901.52;;;-1.41;63.44
61357;BME280;47227;46.752;23.576;2023-01-26T02:11:37;96896.08;;;-1.44;63.61
61357;BME280;47227;46.752;23.576;2023-01-26T02:14:17;96891.70;;;-1.46;63.44
61357;BME280;47227;46.752;23.576;2023-01-26T02:16:48;96884.42;;;-1.48;63.34
61357;BME280;47227;46.752;23.576;2023-01-26T02:19:27;96883.23;;;-1.50;63.54
61357;BME280;47227;46.752;23.576;2023-01-26T02:22:34;96872.30;;;-1.50;63.85
61357;BME280;47227;46.752;23.576;2023-01-26T02:25:24;96870.02;;;-1.51;63.74
61357;BME280;47227;46.752;23.576;2023-01-26T02:28:00;96869.31;;;-1.56;64.25
61357;BME280;47227;46.752;23.576;2023-01-26T02:30:30;96866.82;;;-1.55;63.95
61357;BME280;47227;46.752;23.576;2023-01-26T02:32:59;96865.08;;;-1.55;63.80
61357;BME280;47227;46.752;23.576;2023-01-26T02:35:28;96862.79;;;-1.55;64.14
61357;BME280;47227;46.752;23.576;2023-01-26T02:37:56;96862.14;;;-1.55;64.19
61357;BME280;47227;46.752;23.576;2023-01-26T02:40:35;96857.10;;;-1.54;64.33
61357;BME280;47227;46.752;23.576;2023-01-26T02:43:06;96856.83;;;-1.53;64.06
61357;BME280;47227;46.752;23.576;2023-01-26T02:45:34;96855.73;;;-1.52;64.03
61357;BME280;47227;46.752;23.576;2023-01-26T02:48:03;96855.79;;;-1.51;64.09
61357;BME280;47227;46.752;23.576;2023-01-26T02:50:34;96851.02;;;-1.50;64.28
61357;BME280;47227;46.752;23.576;2023-01-26T02:53:02;96849.98;;;-1.48;64.34
61357;BME280;47227;46.752;23.576;2023-01-26T02:55:31;96848.90;;;-1.46;64.04
61357;BME280;47227;46.752;23.576;2023-01-26T02:58:03;96844.27;;;-1.46;64.33
61357;BME280;47227;46.752;23.576;2023-01-26T03:00:35;96843.70;;;-1.45;64.41
61357;BME280;47227;46.752;23.576;2023-01-26T03:03:11;96838.70;;;-1.45;64.95
61357;BME280;47227;46.752;23.576;2023-01-26T03:05:41;96836.68;;;-1.45;64.85
61357;BME280;47227;46.752;23.576;2023-01-26T03:08:10;96835.95;;;-1.43;64.71
61357;BME280;47227;46.752;23.576;2023-01-26T03:10:52;96829.00;;;-1.42;64.84
61357;BME280;47227;46.752;23.576;2023-01-26T03:13:20;96830.02;;;-1.41;65.04
61357;BME280;47227;46.752;23.576;2023-01-26T03:15:50;96835.08;;;-1.38;65.01
61357;BME280;47227;46.752;23.576;2023-01-26T03:18:22;96830.19;;;-1.36;64.56
61357;BME280;47227;46.752;23.576;2023-01-26T03:21:11;96823.13;;;-1.37;65.47
61357;BME280;47227;46.752;23.576;2023-01-26T03:23:50;96817.45;;;-1.40;66.30
61357;BME280;47227;46.752;23.576;2023-01-26T03:26:33;96815.40;;;-1.40;65.98
61357;BME280;47227;46.752;23.576;2023-01-26T03:29:21;96812.73;;;-1.43;66.20
61357;BME280;47227;46.752;23.576;2023-01-26T03:31:52;96813.17;;;-1.44;66.40
61357;BME280;47227;46.752;23.576;2023-01-26T03:34:21;96814.46;;;-1.43;66.23
61357;BME280;47227;46.752;23.576;2023-01-26T03:36:49;96811.25;;;-1.42;66.33
61357;BME280;47227;46.752;23.576;2023-01-26T03:39:19;96808.23;;;-1.39;66.15
61357;BME280;47227;46.752;23.576;2023-01-26T03:42:03;96807.71;;;-1.36;65.75
61357;BME280;47227;46.752;23.576;2023-01-26T03:44:42;96806.63;;;-1.34;65.78
61357;BME280;47227;46.752;23.576;2023-01-26T03:47:23;96800.57;;;-1.36;67.13
61357;BME280;47227;46.752;23.576;2023-01-26T03:50:02;96796.91;;;-1.39;67.19
61357;BME280;47227;46.752;23.576;2023-01-26T03:52:43;96793.83;;;-1.42;67.55
61357;BME280;47227;46.752;23.576;2023-01-26T03:55:32;96793.81;;;-1.39;66.91
61357;BME280;47227;46.752;23.576;2023-01-26T03:58:15;96793.63;;;-1.37;67.09
61357;BME280;47227;46.752;23.576;2023-01-26T04:00:47;96790.41;;;-1.34;67.19
61357;BME280;47227;46.752;23.576;2023-01-26T04:03:19;96788.48;;;-1.27;67.13
61357;BME280;47227;46.752;23.576;2023-01-26T04:06:04;96790.59;;;-1.18;66.95
61357;BME280;47227;46.752;23.576;2023-01-26T04:08:47;96790.98;;;-1.12;66.75
61357;BME280;47227;46.752;23.576;2023-01-26T04:11:16;96787.20;;;-1.10;66.48
61357;BME280;47227;46.752;23.576;2023-01-26T04:13:44;96783.92;;;-1.08;66.16
61357;BME280;47227;46.752;23.576;2023-01-26T05:02:17;96770.70;;;-1.26;66.20
61357;BME280;47227;46.752;23.576;2023-01-26T05:04:46;96764.01;;;-1.29;66.37
61357;BME280;47227;46.752;23.576;2023-01-26T05:07:15;96761.21;;;-1.34;66.64
61357;BME280;47227;46.752;23.576;2023-01-26T05:09:44;96761.31;;;-1.40;66.77
61357;BME280;47227;46.752;23.576;2023-01-26T05:12:50;96760.73;;;-1.48;67.36
61357;BME280;47227;46.752;23.576;2023-01-26T05:15:33;96759.29;;;-1.54;67.37
61357;BME280;47227;46.752;23.576;2023-01-26T05:18:13;96759.28;;;-1.60;68.17
61357;BME280;47227;46.752;23.576;2023-01-26T05:20:59;96758.84;;;-1.61;67.73
61357;BME280;47227;46.752;23.576;2023-01-26T05:23:35;96754.97;;;-1.62;67.69
61357;BME280;47227;46.752;23.576;2023-01-26T05:26:17;96752.85;;;-1.62;67.97
61357;BME280;47227;46.752;23.576;2023-01-26T05:28:55;96757.95;;;-1.64;67.80
61357;BME280;47227;46.752;23.576;2023-01-26T05:31:27;96757.05;;;-1.66;68.24
61357;BME280;47227;46.752;23.576;2023-01-26T05:33:58;96756.89;;;-1.70;68.34
61357;BME280;47227;46.752;23.576;2023-01-26T05:36:26;96758.08;;;-1.71;68.54
61357;BME280;47227;46.752;23.576;2023-01-26T05:39:01;96761.03;;;-1.74;68.81
61357;BME280;47227;46.752;23.576;2023-01-26T05:41:30;96756.43;;;-1.76;69.06
61357;BME280;47227;46.752;23.576;2023-01-26T05:44:25;96755.84;;;-1.77;68.86
61357;BME280;47227;46.752;23.576;2023-01-26T05:46:59;96753.02;;;-1.78;68.97
61357;BME280;47227;46.752;23.576;2023-01-26T05:49:31;96755.08;;;-1.79;69.28
61357;BME280;47227;46.752;23.576;2023-01-26T05:52:01;96752.76;;;-1.80;69.28
61357;BME280;47227;46.752;23.576;2023-01-26T05:57:28;96749.38;;;-1.81;69.14
61357;BME280;47227;46.752;23.576;2023-01-26T06:00:04;96751.33;;;-1.83;69.52
61357;BME280;47227;46.752;23.576;2023-01-26T06:02:40;96752.58;;;-1.85;69.76
61357;BME280;47227;46.752;23.576;2023-01-26T06:05:16;96753.89;;;-1.86;69.81
61357;BME280;47227;46.752;23.576;2023-01-26T06:07:49;96752.67;;;-1.87;69.99
61357;BME280;47227;46.752;23.576;2023-01-26T06:10:25;96753.44;;;-1.88;70.08
61357;BME280;47227;46.752;23.576;2023-01-26T06:13:02;96747.12;;;-1.87;70.07
61357;BME280;47227;46.752;23.576;2023-01-26T06:15:50;96748.83;;;-1.87;69.95
61357;BME280;47227;46.752;23.576;2023-01-26T06:18:25;96751.52;;;-1.88;70.56
61357;BME280;47227;46.752;23.576;2023-01-26T06:20:59;96755.06;;;-1.87;70.15
61357;BME280;47227;46.752;23.576;2023-01-26T06:23:31;96751.98;;;-1.84;70.30
61357;BME280;47227;46.752;23.576;2023-01-26T06:26:01;96747.58;;;-1.81;70.63
61357;BME280;47227;46.752;23.576;2023-01-26T06:28:31;96750.39;;;-1.73;70.37
61357;BME280;47227;46.752;23.576;2023-01-26T06:31:19;96745.93;;;-1.67;70.22
61357;BME280;47227;46.752;23.576;2023-01-26T06:33:48;96744.79;;;-1.61;70.05
61357;BME280;47227;46.752;23.576;2023-01-26T06:36:17;96739.30;;;-1.54;69.93
61357;BME280;47227;46.752;23.576;2023-01-26T06:41:44;96743.29;;;-1.38;68.90
61357;BME280;47227;46.752;23.576;2023-01-26T06:48:03;96743.42;;;-1.23;68.52
61357;BME280;47227;46.752;23.576;2023-01-26T06:52:20;96746.67;;;-1.18;67.60
61357;BME280;47227;46.752;23.576;2023-01-26T06:54:52;96750.60;;;-1.14;67.65
61357;BME280;47227;46.752;23.576;2023-01-26T06:57:22;96746.60;;;-1.14;67.38
61357;BME280;47227;46.752;23.576;2023-01-26T07:00:03;96748.27;;;-1.14;67.10
61357;BME280;47227;46.752;23.576;2023-01-26T07:02:44;96748.13;;;-1.14;67.35
61357;BME280;47227;46.752;23.576;2023-01-26T07:08:27;96749.33;;;-1.15;66.68
61357;BME280;47227;46.752;23.576;2023-01-26T07:11:05;96750.70;;;-1.15;66.83
61357;BME280;47227;46.752;23.576;2023-01-26T07:13:43;96753.88;;;-1.13;66.82
61357;BME280;47227;46.752;23.576;2023-01-26T07:16:18;96751.92;;;-1.13;66.64
61357;BME280;47227;46.752;23.576;2023-01-26T07:18:46;96757.15;;;-1.12;66.61
61357;BME280;47227;46.752;23.576;2023-01-26T07:24:21;96752.52;;;-1.08;66.76
61357;BME280;47227;46.752;23.576;2023-01-26T07:27:14;96745.76;;;-1.08;66.51
61357;BME280;47227;46.752;23.576;2023-01-26T07:30:36;96742.15;;;-1.03;66.52
61357;BME280;47227;46.752;23.576;2023-01-26T07:33:28;96746.98;;;-0.98;66.30
61357;BME280;47227;46.752;23.576;2023-01-26T07:36:40;96742.86;;;-0.96;65.87
61357;BME280;47227;46.752;23.576;2023-01-26T07:39:29;96741.95;;;-0.91;65.94
61357;BME280;47227;46.752;23.576;2023-01-26T07:42:41;96735.83;;;-0.87;65.33
61357;BME280;47227;46.752;23.576;2023-01-26T07:45:25;96740.42;;;-0.83;64.89
61357;BME280;47227;46.752;23.576;2023-01-26T07:48:10;96746.27;;;-0.82;64.63
61357;BME280;47227;46.752;23.576;2023-01-26T07:51:47;96743.02;;;-0.74;64.91
61357;BME280;47227;46.752;23.576;2023-01-26T07:54:57;96746.17;;;-0.63;64.92
61357;BME280;47227;46.752;23.576;2023-01-26T07:57:35;96744.89;;;-0.53;64.66
61357;BME280;47227;46.752;23.576;2023-01-26T08:00:30;96745.52;;;-0.44;64.08
61357;BME280;47227;46.752;23.576;2023-01-26T08:08:43;96743.79;;;-0.21;63.05
61357;BME280;47227;46.752;23.576;2023-01-26T08:11:49;96743.00;;;-0.06;63.50
61357;BME280;47227;46.752;23.576;2023-01-26T08:14:38;96742.30;;;0.04;63.51
61357;BME280;47227;46.752;23.576;2023-01-26T08:17:18;96739.39;;;0.10;63.10
61357;BME280;47227;46.752;23.576;2023-01-26T08:19:59;96742.66;;;0.23;63.13
61357;BME280;47227;46.752;23.576;2023-01-26T08:22:25;96740.44;;;0.34;63.31
61357;BME280;47227;46.752;23.576;2023-01-26T08:25:15;96739.04;;;0.41;62.90
61357;BME280;47227;46.752;23.576;2023-01-26T08:27:44;96740.88;;;0.47;62.64
61357;BME280;47227;46.752;23.576;2023-01-26T08:30:12;96741.30;;;0.51;61.95
61357;BME280;47227;46.752;23.576;2023-01-26T08:32:41;96746.30;;;0.57;62.33
61357;BME280;47227;46.752;23.576;2023-01-26T08:35:09;96745.08;;;0.64;62.02
61357;BME280;47227;46.752;23.576;2023-01-26T08:38:00;96742.63;;;0.71;61.82
61357;BME280;47227;46.752;23.576;2023-01-26T08:40:31;96747.05;;;0.73;60.55
61357;BME280;47227;46.752;23.576;2023-01-26T08:43:07;96743.44;;;0.76;61.07
61357;BME280;47227;46.752;23.576;2023-01-26T08:45:51;96746.15;;;0.75;60.52
61357;BME280;47227;46.752;23.576;2023-01-26T08:48:21;96745.30;;;0.73;59.38
61357;BME280;47227;46.752;23.576;2023-01-26T08:52:02;96747.12;;;0.77;59.18
61357;BME280;47227;46.752;23.576;2023-01-26T08:55:55;96742.35;;;0.87;58.03
61357;BME280;47227;46.752;23.576;2023-01-26T08:58:51;96738.17;;;0.95;58.13
61357;BME280;47227;46.752;23.576;2023-01-26T09:01:21;96735.13;;;1.00;57.27
61357;BME280;47227;46.752;23.576;2023-01-26T09:03:54;96732.23;;;1.11;58.01
61357;BME280;47227;46.752;23.576;2023-01-26T09:10:07;96723.65;;;1.31;57.84
61357;BME280;47227;46.752;23.576;2023-01-26T09:12:37;96720.98;;;1.27;56.98
61357;BME280;47227;46.752;23.576;2023-01-26T09:15:10;96717.12;;;1.30;57.59
61357;BME280;47227;46.752;23.576;2023-01-26T09:18:01;96712.45;;;1.32;57.39
61357;BME280;47227;46.752;23.576;2023-01-26T09:20:32;96712.43;;;1.36;57.65
61357;BME280;47227;46.752;23.576;2023-01-26T09:23:04;96710.98;;;1.38;57.18
61357;BME280;47227;46.752;23.576;2023-01-26T09:25:35;96710.63;;;1.44;57.77
61357;BME280;47227;46.752;23.576;2023-01-26T09:28:05;96715.34;;;1.49;57.09
61357;BME280;47227;46.752;23.576;2023-01-26T09:30:35;96715.53;;;1.54;56.77
61357;BME280;47227;46.752;23.576;2023-01-26T09:33:04;96712.81;;;1.62;57.26
61357;BME280;47227;46.752;23.576;2023-01-26T09:35:33;96710.44;;;1.66;55.87
61357;BME280;47227;46.752;23.576;2023-01-26T09:38:06;96705.24;;;1.68;56.14
61357;BME280;47227;46.752;23.576;2023-01-26T09:40:54;96700.63;;;1.69;55.86
61357;BME280;47227;46.752;23.576;2023-01-26T09:43:50;96697.27;;;1.77;55.97
61357;BME280;47227;46.752;23.576;2023-01-26T09:46:31;96695.82;;;1.85;56.46
61357;BME280;47227;46.752;23.576;2023-01-26T09:49:24;96695.41;;;1.94;56.18
61357;BME280;47227;46.752;23.576;2023-01-26T09:52:11;96692.52;;;1.93;55.35
61357;BME280;47227;46.752;23.576;2023-01-26T09:54:49;96687.89;;;1.95;55.32
61357;BME280;47227;46.752;23.576;2023-01-26T09:57:40;96683.89;;;2.03;55.05
61357;BME280;47227;46.752;23.576;2023-01-26T10:00:47;96683.21;;;2.07;55.16
61357;BME280;47227;46.752;23.576;2023-01-26T10:03:34;96676.96;;;2.08;54.50
61357;BME280;47227;46.752;23.576;2023-01-26T10:06:22;96676.52;;;2.00;54.00
61357;BME280;47227;46.752;23.576;2023-01-26T10:09:43;96669.48;;;1.97;54.19
61357;BME280;47227;46.752;23.576;2023-01-26T10:12:29;96666.06;;;1.96;54.40
61357;BME280;47227;46.752;23.576;2023-01-26T10:15:27;96664.20;;;2.03;55.32
61357;BME280;47227;46.752;23.576;2023-01-26T10:18:05;96657.67;;;2.02;53.78
61357;BME280;47227;46.752;23.576;2023-01-26T10:20:38;96657.42;;;2.08;54.79
61357;BME280;47227;46.752;23.576;2023-01-26T10:23:21;96657.83;;;2.13;53.83
61357;BME280;47227;46.752;23.576;2023-01-26T10:26:16;96652.81;;;2.12;53.17
61357;BME280;47227;46.752;23.576;2023-01-26T10:28:58;96649.27;;;2.17;53.29
61357;BME280;47227;46.752;23.576;2023-01-26T10:31:46;96647.23;;;2.17;52.67
61357;BME280;47227;46.752;23.576;2023-01-26T10:34:26;96642.52;;;2.19;53.46
61357;BME280;47227;46.752;23.576;2023-01-26T10:37:20;96638.77;;;2.27;53.98
61357;BME280;47227;46.752;23.576;2023-01-26T10:40:02;96638.48;;;2.34;52.90
61357;BME280;47227;46.752;23.576;2023-01-26T10:42:54;96626.98;;;2.30;52.62
61357;BME280;47227;46.752;23.576;2023-01-26T10:45:44;96625.50;;;2.34;53.02
61357;BME280;47227;46.752;23.576;2023-01-26T10:48:20;96620.64;;;2.38;52.40
61357;BME280;47227;46.752;23.576;2023-01-26T10:50:53;96622.55;;;2.40;52.44
61357;BME280;47227;46.752;23.576;2023-01-26T10:53:30;96620.85;;;2.42;52.81
61357;BME280;47227;46.752;23.576;2023-01-26T10:56:21;96623.53;;;2.48;52.88
61357;BME280;47227;46.752;23.576;2023-01-26T10:59:31;96616.17;;;2.48;52.73
61357;BME280;47227;46.752;23.576;2023-01-26T11:02:30;96606.58;;;2.44;52.93
61357;BME280;47227;46.752;23.576;2023-01-26T11:05:39;96595.06;;;2.43;53.27
61357;BME280;47227;46.752;23.576;2023-01-26T11:12:20;96582.77;;;2.56;52.86
61357;BME280;47227;46.752;23.576;2023-01-26T11:15:04;96583.85;;;2.57;52.25
61357;BME280;47227;46.752;23.576;2023-01-26T11:20:48;96573.94;;;2.57;52.08
61357;BME280;47227;46.752;23.576;2023-01-26T11:23:48;96570.23;;;2.65;52.46
61357;BME280;47227;46.752;23.576;2023-01-26T11:26:47;96571.73;;;2.74;52.45
61357;BME280;47227;46.752;23.576;2023-01-26T11:29:45;96574.79;;;2.78;51.81
61357;BME280;47227;46.752;23.576;2023-01-26T11:32:28;96575.35;;;2.78;51.68
61357;BME280;47227;46.752;23.576;2023-01-26T11:35:18;96564.14;;;2.75;51.94
61357;BME280;47227;46.752;23.576;2023-01-26T11:45:10;96549.96;;;2.66;51.97
61357;BME280;47227;46.752;23.576;2023-01-26T11:54:17;96542.48;;;2.69;51.72
61357;BME280;47227;46.752;23.576;2023-01-26T12:46:50;96489.36;;;2.81;51.25
61357;BME280;47227;46.752;23.576;2023-01-26T12:49:43;96487.19;;;2.69;51.19
61357;BME280;47227;46.752;23.576;2023-01-26T12:52:56;96492.59;;;2.56;51.61
61357;BME280;47227;46.752;23.576;2023-01-26T12:55:50;96493.64;;;2.45;51.78
61357;BME280;47227;46.752;23.576;2023-01-26T12:59:33;96493.77;;;2.40;52.33
61357;BME280;47227;46.752;23.576;2023-01-26T13:06:01;96482.96;;;2.38;52.33
61357;BME280;47227;46.752;23.576;2023-01-26T13:12:02;96470.39;;;2.32;52.76
61357;BME280;47227;46.752;23.576;2023-01-26T13:39:39;96456.20;;;2.12;53.24
61357;BME280;47227;46.752;23.576;2023-01-26T13:43:59;96455.77;;;2.20;53.22
61357;BME280;47227;46.752;23.576;2023-01-26T14:02:36;96444.62;;;3.23;50.70
61357;BME280;47227;46.752;23.576;2023-01-26T14:05:30;96445.86;;;3.10;50.67
61357;BME280;47227;46.752;23.576;2023-01-26T14:08:02;96439.15;;;2.93;51.07
61357;BME280;47227;46.752;23.576;2023-01-26T14:10:41;96438.02;;;2.85;51.42
61357;BME280;47227;46.752;23.576;2023-01-26T14:17:56;96440.63;;;2.61;51.89
61357;BME280;47227;46.752;23.576;2023-01-26T14:20:33;96439.00;;;2.56;51.87
61357;BME280;47227;46.752;23.576;2023-01-26T14:23:12;96435.65;;;2.47;52.00
61357;BME280;47227;46.752;23.576;2023-01-26T14:25:58;96433.03;;;2.40;52.19
61357;BME280;47227;46.752;23.576;2023-01-26T14:28:59;96424.86;;;2.31;52.53
61357;BME280;47227;46.752;23.576;2023-01-26T14:36:30;96414.21;;;2.13;53.19
61357;BME280;47227;46.752;23.576;2023-01-26T14:43:14;96400.95;;;1.92;53.30
61357;BME280;47227;46.752;23.576;2023-01-26T14:47:21;96401.02;;;1.73;53.59
61357;BME280;47227;46.752;23.576;2023-01-26T14:50:25;96394.20;;;1.65;53.80
61357;BME280;47227;46.752;23.576;2023-01-26T14:53:17;96396.94;;;1.58;53.99
61357;BME280;47227;46.752;23.576;2023-01-26T14:56:37;96391.23;;;1.46;54.02
61357;BME280;47227;46.752;23.576;2023-01-26T14:59:47;96386.70;;;1.37;54.55
61357;BME280;47227;46.752;23.576;2023-01-26T15:02:47;96388.26;;;1.33;54.53
61357;BME280;47227;46.752;23.576;2023-01-26T15:09:20;96377.85;;;1.16;55.54
61357;BME280;47227;46.752;23.576;2023-01-26T15:15:41;96371.50;;;1.04;55.43
61357;BME280;47227;46.752;23.576;2023-01-26T15:19:01;96370.20;;;1.00;55.65
61357;BME280;47227;46.752;23.576;2023-01-26T15:22:27;96381.35;;;0.96;55.51
61357;BME280;47227;46.752;23.576;2023-01-26T15:25:29;96377.56;;;0.90;56.70
61357;BME280;47227;46.752;23.576;2023-01-26T15:28:27;96379.27;;;0.89;56.66
61357;BME280;47227;46.752;23.576;2023-01-26T15:31:40;96378.23;;;0.89;56.53
61357;BME280;47227;46.752;23.576;2023-01-26T15:34:32;96380.44;;;0.92;56.62
61357;BME280;47227;46.752;23.576;2023-01-26T15:37:29;96379.90;;;0.95;56.65
61357;BME280;47227;46.752;23.576;2023-01-26T15:39:56;96375.55;;;0.97;56.87
61357;BME280;47227;46.752;23.576;2023-01-26T15:42:25;96379.59;;;0.97;56.81
61357;BME280;47227;46.752;23.576;2023-01-26T15:44:57;96384.23;;;0.97;56.96
61357;BME280;47227;46.752;23.576;2023-01-26T15:47:24;96383.54;;;0.99;56.95
61357;BME280;47227;46.752;23.576;2023-01-26T15:49:52;96380.87;;;1.00;57.10
61357;BME280;47227;46.752;23.576;2023-01-26T15:52:22;96370.56;;;1.01;56.86
61357;BME280;47227;46.752;23.576;2023-01-26T15:54:53;96369.23;;;1.01;56.73
61357;BME280;47227;46.752;23.576;2023-01-26T15:57:24;96378.66;;;0.99;57.39
61357;BME280;47227;46.752;23.576;2023-01-26T15:59:54;96382.03;;;0.98;57.12
61357;BME280;47227;46.752;23.576;2023-01-26T16:02:21;96381.38;;;0.98;56.98
61357;BME280;47227;46.752;23.576;2023-01-26T16:04:48;96377.63;;;0.97;57.01
61357;BME280;47227;46.752;23.576;2023-01-26T16:07:16;96376.95;;;0.93;57.10
61357;BME280;47227;46.752;23.576;2023-01-26T16:09:44;96376.77;;;0.94;56.95
61357;BME280;47227;46.752;23.576;2023-01-26T16:12:16;96374.39;;;0.89;57.24
61357;BME280;47227;46.752;23.576;2023-01-26T16:14:59;96369.22;;;0.85;57.41
61357;BME280;47227;46.752;23.576;2023-01-26T16:17:26;96369.95;;;0.83;57.44
61357;BME280;47227;46.752;23.576;2023-01-26T16:19:53;96366.79;;;0.81;57.53
61357;BME280;47227;46.752;23.576;2023-01-26T16:22:20;96363.11;;;0.78;57.37
61357;BME280;47227;46.752;23.576;2023-01-26T16:24:47;96359.20;;;0.73;57.69
61357;BME280;47227;46.752;23.576;2023-01-26T16:27:14;96355.09;;;0.68;57.80
61357;BME280;47227;46.752;23.576;2023-01-26T16:29:41;96355.00;;;0.62;58.18
61357;BME280;47227;46.752;23.576;2023-01-26T16:32:25;96356.06;;;0.58;58.71
61357;BME280;47227;46.752;23.576;2023-01-26T16:34:53;96358.11;;;0.52;59.89
61357;BME280;47227;46.752;23.576;2023-01-26T16:37:20;96361.35;;;0.48;59.61
61357;BME280;47227;46.752;23.576;2023-01-26T16:39:47;96355.77;;;0.46;59.19
61357;BME280;47227;46.752;23.576;2023-01-26T16:42:17;96360.10;;;0.47;59.07
61357;BME280;47227;46.752;23.576;2023-01-26T16:44:48;96358.73;;;0.48;58.98
61357;BME280;47227;46.752;23.576;2023-01-26T16:47:16;96360.26;;;0.49;58.96
61357;BME280;47227;46.752;23.576;2023-01-26T16:49:47;96360.85;;;0.49;58.96
61357;BME280;47227;46.752;23.576;2023-01-26T16:52:14;96359.75;;;0.50;59.00
61357;BME280;47227;46.752;23.576;2023-01-26T16:54:44;96358.48;;;0.51;58.87
61357;BME280;47227;46.752;23.576;2023-01-26T16:57:13;96359.02;;;0.49;59.21
61357;BME280;47227;46.752;23.576;2023-01-26T16:59:53;96354.34;;;0.46;59.83
61357;BME280;47227;46.752;23.576;2023-01-26T17:02:26;96352.35;;;0.46;59.95
61357;BME280;47227;46.752;23.576;2023-01-26T17:04:56;96354.05;;;0.46;60.07
61357;BME280;47227;46.752;23.576;2023-01-26T17:07:23;96346.92;;;0.47;60.53
61357;BME280;47227;46.752;23.576;2023-01-26T17:09:50;96348.09;;;0.48;60.09
61357;BME280;47227;46.752;23.576;2023-01-26T17:12:17;96342.33;;;0.50;59.89
61357;BME280;47227;46.752;23.576;2023-01-26T17:14:44;96340.27;;;0.52;59.80
61357;BME280;47227;46.752;23.576;2023-01-26T17:17:11;96335.20;;;0.53;59.89
61357;BME280;47227;46.752;23.576;2023-01-26T17:19:41;96333.96;;;0.51;59.84
61357;BME280;47227;46.752;23.576;2023-01-26T17:22:08;96333.08;;;0.51;59.74
61357;BME280;47227;46.752;23.576;2023-01-26T17:24:35;96325.05;;;0.53;59.54
61357;BME280;47227;46.752;23.576;2023-01-26T17:27:04;96322.46;;;0.53;59.50
61357;BME280;47227;46.752;23.576;2023-01-26T17:29:34;96327.59;;;0.53;59.40
61357;BME280;47227;46.752;23.576;2023-01-26T17:32:02;96324.00;;;0.53;59.52
61357;BME280;47227;46.752;23.576;2023-01-26T17:34:29;96326.80;;;0.54;59.57
61357;BME280;47227;46.752;23.576;2023-01-26T17:36:56;96324.26;;;0.53;59.49